Time;durP1;ratioP1;P1;durP2;ratioP2;P2;SDS_P1;SDS_P2;PMS_P1;PMS_P2;Temp;Humidity;BMP_temperature;BMP_pressure;BME280_temperature;BME280_humidity;BME280_pressure;Samples;Min_cycle;Max_cycle;Signal;HPM_P1;HPM_P2
2022/11/28 00:02:46;;;;;;;0.40;0.40;;;14.60;94.30;;;;;;5092684;28;20223;-64
2022/11/28 00:05:35;;;;;;;0.40;0.40;;;14.70;94.40;;;;;;5091566;28;20247;-63
2022/11/28 00:08:24;;;;;;;0.40;0.40;;;14.70;94.20;;;;;;5093233;28;20196;-63
2022/11/28 00:11:14;;;;;;;0.40;0.40;;;14.70;94.20;;;;;;5092127;28;20207;-63
2022/11/28 00:14:02;;;;;;;0.40;0.40;;;14.70;94.10;;;;;;5093150;28;20672;-64
2022/11/28 00:16:51;;;;;;;0.40;0.40;;;14.70;94.10;;;;;;5083040;28;20584;-63
2022/11/28 00:19:39;;;;;;;0.40;0.40;;;14.70;94.40;;;;;;5072974;28;20203;-63
2022/11/28 00:22:28;;;;;;;0.40;0.40;;;14.70;94.10;;;;;;5072149;28;20270;-62
2022/11/28 00:25:16;;;;;;;0.40;0.40;;;14.70;94.20;;;;;;5073400;28;20254;-63
2022/11/28 00:28:04;;;;;;;3.13;3.03;;;14.80;94.20;;;;;;5072663;28;20664;-62
2022/11/28 00:30:52;;;;;;;2.73;2.63;;;14.80;94.30;;;;;;5072090;28;20680;-63
2022/11/28 00:33:42;;;;;;;0.40;0.40;;;14.80;94.20;;;;;;5072209;28;20231;-64
2022/11/28 00:36:30;;;;;;;0.40;0.40;;;14.80;93.90;;;;;;5073343;28;21289;-64
2022/11/28 00:39:18;;;;;;;0.77;0.77;;;14.70;94.00;;;;;;5073095;28;20275;-63
2022/11/28 00:42:06;;;;;;;0.40;0.40;;;14.70;93.90;;;;;;5071900;28;20244;-63
2022/11/28 00:44:54;;;;;;;0.40;0.40;;;14.70;94.10;;;;;;5073691;28;20714;-63
2022/11/28 00:47:42;;;;;;;0.50;0.50;;;14.70;94.00;;;;;;5072332;28;21018;-63
2022/11/28 00:50:32;;;;;;;0.40;0.40;;;14.70;94.20;;;;;;5072992;28;20199;-64
2022/11/28 00:53:20;;;;;;;0.40;0.40;;;14.70;94.10;;;;;;5072027;28;20668;-64
2022/11/28 00:56:10;;;;;;;0.40;0.40;;;14.70;93.90;;;;;;5072559;28;20287;-63
2022/11/28 00:58:59;;;;;;;0.40;0.40;;;14.60;93.90;;;;;;5073120;28;20224;-63
2022/11/28 01:01:47;;;;;;;0.77;0.77;;;14.60;94.50;;;;;;5072274;28;20281;-63
2022/11/28 01:04:35;;;;;;;0.40;0.40;;;14.60;94.00;;;;;;5072766;28;20223;-62
2022/11/28 01:07:27;;;;;;;11.50;10.70;;;14.60;94.20;;;;;;5071723;28;20288;-64
2022/11/28 01:10:15;;;;;;;1.37;1.37;;;14.60;94.10;;;;;;5072504;28;20209;-63
2022/11/28 01:13:03;;;;;;;0.40;0.40;;;14.60;94.10;;;;;;5071599;28;20355;-64
2022/11/28 01:15:51;;;;;;;0.40;0.40;;;14.60;94.20;;;;;;5073297;28;20224;-63
2022/11/28 01:18:39;;;;;;;0.40;0.40;;;14.60;94.30;;;;;;5092713;28;20206;-63
2022/11/28 01:21:27;;;;;;;0.40;0.40;;;14.60;94.20;;;;;;5092117;28;20208;-63
2022/11/28 01:24:17;;;;;;;0.40;0.40;;;14.60;94.30;;;;;;5095359;28;20202;-63
2022/11/28 01:27:07;;;;;;;0.50;0.50;;;14.60;94.30;;;;;;5096062;28;20665;-63
2022/11/28 01:29:55;;;;;;;0.40;0.40;;;14.70;94.00;;;;;;5094470;28;20422;-63
2022/11/28 01:32:43;;;;;;;0.40;0.40;;;14.70;94.20;;;;;;5095504;28;20326;-64
2022/11/28 01:35:31;;;;;;;0.40;0.40;;;14.70;94.00;;;;;;5094913;28;20628;-64
2022/11/28 01:38:19;;;;;;;0.40;0.40;;;14.70;93.90;;;;;;5096528;28;20199;-62
2022/11/28 01:41:08;;;;;;;0.40;0.40;;;14.70;93.90;;;;;;5095569;28;20342;-64
2022/11/28 01:43:58;;;;;;;0.40;0.40;;;14.70;93.90;;;;;;5095622;28;20196;-63
2022/11/28 01:46:46;;;;;;;0.40;0.40;;;14.70;94.00;;;;;;5096262;28;20203;-64
2022/11/28 01:49:37;;;;;;;0.40;0.40;;;14.80;94.10;;;;;;5095578;28;20279;-63
2022/11/28 01:52:25;;;;;;;0.43;0.43;;;14.80;94.00;;;;;;5095973;28;20730;-62
2022/11/28 01:55:18;;;;;;;0.40;0.40;;;14.90;94.00;;;;;;5096199;28;20196;-63
2022/11/28 01:58:07;;;;;;;0.50;0.50;;;14.80;93.90;;;;;;5096253;28;20196;-63
2022/11/28 02:00:55;;;;;;;0.40;0.40;;;14.80;93.70;;;;;;5095526;28;20212;-63
2022/11/28 02:03:45;;;;;;;0.40;0.40;;;14.80;93.70;;;;;;5095074;28;20223;-62
2022/11/28 02:06:34;;;;;;;0.40;0.40;;;14.80;93.70;;;;;;5095432;28;20223;-62
2022/11/28 02:09:22;;;;;;;0.40;0.40;;;14.70;93.60;;;;;;5093657;28;20279;-62
2022/11/28 02:12:24;;;;;;;0.40;0.40;;;14.70;93.60;;;;;;5095256;28;20450;-64
2022/11/28 02:15:25;;;;;;;0.40;0.40;;;14.70;93.80;;;;;;5094480;28;20206;-62
2022/11/28 02:18:27;;;;;;;1.57;1.50;;;14.70;93.50;;;;;;5074957;28;20252;-63
2022/11/28 02:21:33;;;;;;;0.40;0.40;;;14.70;93.80;;;;;;5074039;28;20200;-64
2022/11/28 02:25:04;;;;;;;0.50;0.50;;;14.60;93.50;;;;;;5074639;28;20204;-63
2022/11/28 02:28:25;;;;;;;0.40;0.40;;;14.60;93.60;;;;;;5074500;28;20223;-64
2022/11/28 02:31:28;;;;;;;1.80;1.70;;;14.60;93.60;;;;;;5083334;28;20640;-64
2022/11/28 02:34:26;;;;;;;0.40;0.40;;;14.60;93.60;;;;;;5074290;28;20192;-64
2022/11/28 02:37:22;;;;;;;0.40;0.40;;;14.50;93.80;;;;;;5074335;28;20326;-63
2022/11/28 02:40:20;;;;;;;0.40;0.40;;;14.50;93.80;;;;;;5073907;28;20196;-63
2022/11/28 02:43:16;;;;;;;0.40;0.40;;;14.50;93.90;;;;;;5074377;28;20263;-64
2022/11/28 02:46:13;;;;;;;0.40;0.40;;;14.50;93.70;;;;;;5074303;28;20748;-65
2022/11/28 02:49:04;;;;;;;0.70;0.70;;;14.50;93.80;;;;;;5073509;28;20427;-63
2022/11/28 02:51:59;;;;;;;0.60;0.60;;;14.60;93.90;;;;;;5074256;28;20223;-62
2022/11/28 02:54:49;;;;;;;0.40;0.40;;;14.60;93.60;;;;;;5074909;28;20207;-63
2022/11/28 02:57:38;;;;;;;4.90;4.00;;;14.60;93.60;;;;;;5073636;28;20199;-63
2022/11/28 03:00:29;;;;;;;0.40;0.40;;;14.60;93.60;;;;;;5073374;28;20485;-63
2022/11/28 03:03:46;;;;;;;0.40;0.40;;;14.60;93.70;;;;;;5074290;28;20224;-64
2022/11/28 03:06:43;;;;;;;0.60;0.60;;;14.60;93.80;;;;;;5073720;28;20850;-63
2022/11/28 03:09:51;;;;;;;0.40;0.40;;;14.60;93.80;;;;;;5072919;28;20715;-63
2022/11/28 03:12:50;;;;;;;0.40;0.40;;;14.60;93.70;;;;;;5073283;28;20248;-63
2022/11/28 03:15:48;;;;;;;0.40;0.40;;;14.60;93.90;;;;;;5072700;28;20228;-64
2022/11/28 03:18:39;;;;;;;0.40;0.40;;;14.60;93.90;;;;;;5073457;28;20192;-63
2022/11/28 03:21:36;;;;;;;0.50;0.50;;;14.60;93.70;;;;;;5072778;28;20700;-63
2022/11/28 03:24:32;;;;;;;0.40;0.40;;;14.60;93.60;;;;;;5073291;28;20860;-64
2022/11/28 03:27:25;;;;;;;0.40;0.40;;;14.60;93.60;;;;;;5073561;28;20307;-63
2022/11/28 03:30:18;;;;;;;0.40;0.40;;;14.60;93.50;;;;;;5072805;28;20639;-63
2022/11/28 03:33:08;;;;;;;0.50;0.50;;;14.60;93.60;;;;;;5074133;28;20227;-62
2022/11/28 03:36:00;;;;;;;0.40;0.40;;;14.60;93.50;;;;;;5073025;28;20744;-63
2022/11/28 03:38:52;;;;;;;0.40;0.40;;;14.60;93.40;;;;;;5073736;28;20451;-63
2022/11/28 03:41:43;;;;;;;0.40;0.40;;;14.50;93.20;;;;;;5073026;28;20567;-64
2022/11/28 03:44:40;;;;;;;0.50;0.50;;;14.50;93.10;;;;;;5072885;28;20327;-63
2022/11/28 03:47:34;;;;;;;0.40;0.40;;;14.50;93.50;;;;;;5071966;28;20235;-63
2022/11/28 03:50:27;;;;;;;0.40;0.40;;;14.50;93.50;;;;;;5072720;28;20285;-63
2022/11/28 03:53:20;;;;;;;0.40;0.40;;;14.50;93.40;;;;;;5072765;28;20530;-64
2022/11/28 03:56:13;;;;;;;0.40;0.40;;;14.40;93.20;;;;;;5072581;28;20425;-63
2022/11/28 03:59:07;;;;;;;0.40;0.40;;;14.40;93.50;;;;;;5072332;28;20215;-63
2022/11/28 04:02:05;;;;;;;0.40;0.40;;;14.40;93.40;;;;;;5071813;28;20712;-63
2022/11/28 04:05:00;;;;;;;0.40;0.40;;;14.40;93.50;;;;;;5072980;28;20692;-63
2022/11/28 04:07:53;;;;;;;0.40;0.40;;;14.40;93.50;;;;;;5072509;28;20310;-64
2022/11/28 04:10:45;;;;;;;0.40;0.40;;;14.40;93.80;;;;;;5072960;28;20516;-64
2022/11/28 04:13:36;;;;;;;0.40;0.40;;;14.40;93.90;;;;;;5072970;28;20708;-64
2022/11/28 04:16:31;;;;;;;0.40;0.40;;;14.50;93.90;;;;;;5077062;28;20886;-64
2022/11/28 04:19:27;;;;;;;0.50;0.50;;;14.50;94.10;;;;;;5092776;28;20200;-64
2022/11/28 04:22:19;;;;;;;0.40;0.40;;;14.60;93.70;;;;;;5103469;22;20499;-65
2022/11/28 04:25:12;;;;;;;0.40;0.40;;;14.60;94.00;;;;;;5071703;28;20330;-65
2022/11/28 04:28:05;;;;;;;0.40;0.40;;;14.70;94.10;;;;;;5071708;28;20780;-64
2022/11/28 04:30:55;;;;;;;0.40;0.40;;;14.70;93.80;;;;;;5071166;28;20514;-64
2022/11/28 04:33:50;;;;;;;0.83;0.83;;;14.80;93.50;;;;;;5071506;28;20356;-65
2022/11/28 04:36:43;;;;;;;0.40;0.40;;;14.90;93.70;;;;;;5071667;28;20276;-65
2022/11/28 04:39:34;;;;;;;1.53;1.43;;;14.90;93.50;;;;;;5071879;28;20642;-65
2022/11/28 04:42:26;;;;;;;0.40;0.40;;;14.90;93.30;;;;;;5072526;28;20212;-65
2022/11/28 04:45:19;;;;;;;0.40;0.40;;;14.90;93.00;;;;;;5073146;28;20431;-64
2022/11/28 04:48:07;;;;;;;0.40;0.40;;;15.00;93.20;;;;;;5071944;28;20284;-65
2022/11/28 04:51:05;;;;;;;0.40;0.40;;;15.00;93.20;;;;;;5071985;28;20318;-64
2022/11/28 04:54:04;;;;;;;0.50;0.50;;;15.00;93.10;;;;;;5071558;28;20252;-65
2022/11/28 04:56:57;;;;;;;0.50;0.50;;;15.00;93.10;;;;;;5071972;28;20197;-65
2022/11/28 04:59:47;;;;;;;0.40;0.40;;;15.00;93.00;;;;;;5076962;28;20286;-65
2022/11/28 05:02:36;;;;;;;0.40;0.40;;;14.90;92.90;;;;;;5075660;28;20311;-65
2022/11/28 05:05:27;;;;;;;0.40;0.40;;;14.90;93.00;;;;;;5076435;28;20207;-65
2022/11/28 05:08:16;;;;;;;0.40;0.40;;;14.90;92.70;;;;;;5075424;28;20306;-64
2022/11/28 05:11:05;;;;;;;1.90;1.80;;;14.90;92.80;;;;;;5075136;28;20284;-65
2022/11/28 05:13:54;;;;;;;0.43;0.43;;;14.90;92.90;;;;;;5075761;28;20346;-65
2022/11/28 05:16:42;;;;;;;0.40;0.40;;;14.90;92.80;;;;;;5067445;28;20201;-64
2022/11/28 05:19:30;;;;;;;0.40;0.40;;;14.80;92.80;;;;;;5055066;28;20197;-65
2022/11/28 05:22:18;;;;;;;0.40;0.40;;;14.80;93.00;;;;;;5055326;28;20270;-64
2022/11/28 05:25:07;;;;;;;0.40;0.40;;;14.80;92.80;;;;;;5055350;28;20233;-64
2022/11/28 05:27:56;;;;;;;0.40;0.40;;;14.80;93.00;;;;;;5055508;28;20256;-65
2022/11/28 05:30:44;;;;;;;1.20;1.17;;;14.70;93.00;;;;;;5054956;28;20267;-65
2022/11/28 05:33:32;;;;;;;0.40;0.40;;;14.70;93.00;;;;;;5055552;28;20830;-64
2022/11/28 05:36:21;;;;;;;0.40;0.40;;;14.70;92.90;;;;;;5054478;28;20266;-64
2022/11/28 05:39:09;;;;;;;0.40;0.40;;;14.70;93.00;;;;;;5054424;28;20276;-65
2022/11/28 05:41:58;;;;;;;0.40;0.40;;;14.30;93.00;;;;;;5054298;28;20291;-65
2022/11/28 05:44:47;;;;;;;0.40;0.40;;;14.60;93.00;;;;;;5054583;28;20716;-65
2022/11/28 05:47:36;;;;;;;0.40;0.40;;;14.60;93.00;;;;;;5054315;28;20348;-65
2022/11/28 05:50:24;;;;;;;0.40;0.40;;;14.60;93.10;;;;;;5053670;28;20201;-65
2022/11/28 05:53:12;;;;;;;0.70;0.70;;;14.60;93.10;;;;;;5053573;28;20335;-65
2022/11/28 05:56:05;;;;;;;0.40;0.40;;;14.60;93.10;;;;;;5054335;28;20247;-65
2022/11/28 05:58:54;;;;;;;0.40;0.40;;;14.50;93.10;;;;;;5053841;28;20205;-65
2022/11/28 06:01:43;;;;;;;0.40;0.40;;;14.60;93.10;;;;;;5053790;28;20280;-65
2022/11/28 06:04:32;;;;;;;0.50;0.50;;;14.60;93.20;;;;;;5054323;28;20205;-64
2022/11/28 06:07:20;;;;;;;0.40;0.40;;;14.60;93.10;;;;;;5054275;28;20227;-66
2022/11/28 06:10:09;;;;;;;0.40;0.40;;;14.70;93.20;;;;;;5052627;28;20436;-64
2022/11/28 06:12:57;;;;;;;0.40;0.40;;;14.70;93.10;;;;;;5053415;28;20228;-65
2022/11/28 06:15:45;;;;;;;0.40;0.40;;;14.70;93.20;;;;;;5053668;28;20247;-65
2022/11/28 06:18:35;;;;;;;0.40;0.40;;;14.70;93.20;;;;;;5054090;28;20205;-65
2022/11/28 06:21:24;;;;;;;0.40;0.40;;;14.70;93.10;;;;;;5053502;28;20315;-65
2022/11/28 06:24:12;;;;;;;0.40;0.40;;;14.70;93.10;;;;;;5053859;28;20238;-64
2022/11/28 06:27:00;;;;;;;0.40;0.40;;;14.70;93.20;;;;;;5054003;28;20271;-65
2022/11/28 06:29:48;;;;;;;0.57;0.57;;;14.70;93.10;;;;;;5052989;28;20496;-65
2022/11/28 06:32:36;;;;;;;0.40;0.40;;;14.70;93.10;;;;;;5053195;28;20727;-64
2022/11/28 06:35:26;;;;;;;0.40;0.40;;;14.70;93.00;;;;;;5054065;28;20284;-65
2022/11/28 06:38:14;;;;;;;0.40;0.40;;;14.70;93.10;;;;;;5064429;28;20301;-64
2022/11/28 06:41:04;;;;;;;0.40;0.40;;;14.70;93.40;;;;;;5071355;28;20238;-65
2022/11/28 06:43:52;;;;;;;0.40;0.40;;;14.70;93.30;;;;;;5074932;28;20276;-65
2022/11/28 06:46:40;;;;;;;0.40;0.40;;;14.70;93.20;;;;;;5075023;28;20201;-65
2022/11/28 06:49:29;;;;;;;0.40;0.40;;;14.70;93.00;;;;;;5075876;28;20788;-65
2022/11/28 06:52:19;;;;;;;0.40;0.40;;;14.70;93.20;;;;;;5073651;28;20247;-65
2022/11/28 06:55:08;;;;;;;0.40;0.40;;;14.70;93.00;;;;;;5070918;28;20330;-64
2022/11/28 06:57:56;;;;;;;0.40;0.40;;;14.70;93.00;;;;;;5057956;28;20201;-65
2022/11/28 07:00:45;;;;;;;0.40;0.40;;;14.70;93.00;;;;;;5060118;28;20988;-64
2022/11/28 07:03:33;;;;;;;0.50;0.50;;;14.60;92.80;;;;;;5072405;28;20243;-65
2022/11/28 07:06:22;;;;;;;0.40;0.40;;;14.60;92.70;;;;;;5057963;28;20428;-65
2022/11/28 07:09:12;;;;;;;0.40;0.40;;;14.60;92.60;;;;;;5066465;28;20252;-64
2022/11/28 07:12:00;;;;;;;0.50;0.50;;;14.60;92.50;;;;;;5075683;28;20200;-65
2022/11/28 07:14:48;;;;;;;0.40;0.40;;;14.60;92.60;;;;;;5075473;28;20209;-64
2022/11/28 07:17:36;;;;;;;0.50;0.50;;;14.60;92.60;;;;;;5059099;28;20251;-65
2022/11/28 07:20:25;;;;;;;1.07;1.07;;;14.60;92.60;;;;;;5053721;28;20206;-64
2022/11/28 07:23:13;;;;;;;0.40;0.40;;;14.60;92.70;;;;;;5063866;28;20255;-64
2022/11/28 07:26:03;;;;;;;0.40;0.40;;;14.60;92.70;;;;;;5072807;28;20243;-64
2022/11/28 07:28:52;;;;;;;0.40;0.40;;;14.60;92.70;;;;;;5073340;28;20303;-64
2022/11/28 07:31:40;;;;;;;0.40;0.40;;;14.60;92.50;;;;;;5073177;28;20752;-64
2022/11/28 07:34:28;;;;;;;0.40;0.40;;;14.60;92.70;;;;;;5072858;28;20514;-64
2022/11/28 07:37:16;;;;;;;0.40;0.40;;;14.70;92.90;;;;;;5073163;28;20750;-64
2022/11/28 07:40:05;;;;;;;0.40;0.40;;;14.70;92.80;;;;;;5072391;28;20633;-64
2022/11/28 07:42:55;;;;;;;0.40;0.40;;;14.70;92.80;;;;;;5075986;28;20709;-65
2022/11/28 07:45:43;;;;;;;0.40;0.40;;;14.70;92.80;;;;;;5072097;28;20419;-65
2022/11/28 07:48:48;;;;;;;0.80;0.80;;;14.70;92.70;;;;;;5071643;28;20227;-65
2022/11/28 07:51:37;;;;;;;0.40;0.40;;;14.80;92.80;;;;;;5072272;28;20246;-65
2022/11/28 07:54:25;;;;;;;0.40;0.40;;;14.80;92.80;;;;;;5072169;28;20243;-65
2022/11/28 07:57:13;;;;;;;0.40;0.40;;;14.80;92.60;;;;;;5072538;28;20574;-65
2022/11/28 08:00:04;;;;;;;0.40;0.40;;;14.80;92.60;;;;;;5071992;28;20201;-65
2022/11/28 08:02:52;;;;;;;0.40;0.40;;;14.70;92.30;;;;;;5071777;28;20216;-65
2022/11/28 08:05:41;;;;;;;0.40;0.40;;;14.80;92.50;;;;;;5071960;28;20266;-65
2022/11/28 08:08:29;;;;;;;0.40;0.40;;;14.90;92.50;;;;;;5072171;28;20248;-65
2022/11/28 08:11:19;;;;;;;0.40;0.40;;;14.90;92.50;;;;;;5076809;28;20361;-65
2022/11/28 08:14:08;;;;;;;0.40;0.40;;;14.80;92.80;;;;;;5081540;28;20279;-65
2022/11/28 08:16:57;;;;;;;0.40;0.40;;;14.90;92.50;;;;;;5090302;28;20200;-66
2022/11/28 08:19:45;;;;;;;0.40;0.40;;;14.90;92.70;;;;;;5077131;28;20208;-65
2022/11/28 08:22:34;;;;;;;0.40;0.40;;;14.90;92.70;;;;;;5072182;28;20309;-65
2022/11/28 08:25:22;;;;;;;0.40;0.40;;;14.90;92.60;;;;;;5073126;28;20680;-65
2022/11/28 08:28:10;;;;;;;0.40;0.40;;;14.90;92.60;;;;;;5060617;28;20255;-65
2022/11/28 08:31:00;;;;;;;0.40;0.40;;;14.90;92.60;;;;;;5051692;28;20219;-65
2022/11/28 08:33:51;;;;;;;2.53;2.40;;;14.80;92.60;;;;;;5050658;28;20585;-65
2022/11/28 08:36:39;;;;;;;0.80;0.80;;;14.80;92.50;;;;;;5052005;28;20228;-65
2022/11/28 08:39:27;;;;;;;0.40;0.40;;;14.80;92.60;;;;;;5051105;28;20201;-65
2022/11/28 08:42:15;;;;;;;0.50;0.50;;;14.80;92.70;;;;;;5051403;28;20315;-65
2022/11/28 08:45:06;;;;;;;0.40;0.40;;;14.80;92.70;;;;;;5051609;28;20248;-65
2022/11/28 08:47:54;;;;;;;0.40;0.40;;;14.80;92.70;;;;;;5052075;28;20243;-64
2022/11/28 08:50:47;;;;;;;0.40;0.40;;;14.80;92.90;;;;;;5051205;28;20201;-65
2022/11/28 08:53:35;;;;;;;0.40;0.40;;;14.90;92.90;;;;;;5052000;28;20330;-65
2022/11/28 08:56:23;;;;;;;0.40;0.40;;;14.90;92.90;;;;;;5051956;28;20301;-65
2022/11/28 08:59:12;;;;;;;0.40;0.40;;;14.90;92.90;;;;;;5051014;28;20197;-65
2022/11/28 09:02:00;;;;;;;0.40;0.40;;;14.90;92.90;;;;;;5059419;28;20205;-65
2022/11/28 09:04:48;;;;;;;0.40;0.40;;;14.90;93.00;;;;;;5056299;28;20280;-65
2022/11/28 09:07:37;;;;;;;0.40;0.40;;;14.90;92.90;;;;;;5069764;28;20686;-65
2022/11/28 09:10:26;;;;;;;1.23;1.23;;;14.90;92.90;;;;;;5071313;28;20205;-65
2022/11/28 09:13:15;;;;;;;0.70;0.70;;;14.90;93.00;;;;;;5072410;28;20687;-65
2022/11/28 09:16:04;;;;;;;0.40;0.40;;;14.90;93.00;;;;;;5071263;28;20748;-65
2022/11/28 09:18:53;;;;;;;0.40;0.40;;;14.90;93.00;;;;;;5070925;28;20219;-65
2022/11/28 09:21:42;;;;;;;0.40;0.40;;;14.80;92.90;;;;;;5072091;28;20229;-65
2022/11/28 09:24:31;;;;;;;0.40;0.40;;;14.70;92.70;;;;;;5071392;28;20234;-65
2022/11/28 09:27:19;;;;;;;0.40;0.40;;;14.80;93.10;;;;;;5071029;28;20243;-64
2022/11/28 09:30:11;;;;;;;0.40;0.40;;;14.80;93.70;;;;;;5058245;28;20729;-65
2022/11/28 09:32:59;;;;;;;0.40;0.40;;;15.10;93.90;;;;;;5071000;28;20265;-65
2022/11/28 09:35:47;;;;;;;0.40;0.40;;;15.40;93.70;;;;;;5070665;28;20334;-66
2022/11/28 09:38:36;;;;;;;0.40;0.40;;;15.60;93.50;;;;;;5070609;28;20278;-66
2022/11/28 09:41:47;;;;;;;0.40;0.40;;;15.90;93.30;;;;;;5070576;28;20228;-67
2022/11/28 09:44:41;;;;;;;0.40;0.40;;;16.10;93.10;;;;;;5057587;28;20283;-65
2022/11/28 09:47:32;;;;;;;0.40;0.40;;;16.30;93.00;;;;;;5074709;28;20556;-66
2022/11/28 09:50:24;;;;;;;0.40;0.40;;;16.40;93.00;;;;;;5072407;28;20295;-66
2022/11/28 09:53:20;;;;;;;0.40;0.40;;;16.60;92.80;;;;;;5076016;28;20294;-65
2022/11/28 09:56:12;;;;;;;0.40;0.40;;;16.90;92.80;;;;;;5074157;28;20207;-65
2022/11/28 09:59:03;;;;;;;0.40;0.40;;;17.10;92.50;;;;;;5069230;28;20625;-65
2022/11/28 10:02:00;;;;;;;0.57;0.57;;;17.30;92.30;;;;;;5072421;28;20266;-67
2022/11/28 10:05:00;;;;;;;0.40;0.40;;;17.50;92.10;;;;;;5073992;28;20220;-66
2022/11/28 10:08:00;;;;;;;0.40;0.40;;;17.60;92.00;;;;;;5057544;28;20197;-65
2022/11/28 10:10:57;;;;;;;0.47;0.47;;;17.90;91.70;;;;;;5063124;28;20286;-68
2022/11/28 10:13:54;;;;;;;0.40;0.40;;;18.00;91.60;;;;;;5076021;28;20248;-67
2022/11/28 10:17:07;;;;;;;0.55;0.55;;;18.10;91.40;;;;;;5075061;28;20212;-68
2022/11/28 10:19:59;;;;;;;0.40;0.40;;;18.30;91.30;;;;;;5062370;28;20194;-66
2022/11/28 10:22:53;;;;;;;0.40;0.40;;;18.40;91.10;;;;;;5072629;28;20623;-66
2022/11/28 10:25:47;;;;;;;0.50;0.50;;;18.50;91.00;;;;;;5073574;28;20319;-66
2022/11/28 10:28:38;;;;;;;7.97;2.25;;;18.60;91.00;;;;;;5071395;28;20261;-66
2022/11/28 10:31:33;;;;;;;0.40;0.40;;;18.80;90.90;;;;;;5075182;28;20280;-64
2022/11/28 10:34:28;;;;;;;0.50;0.50;;;18.90;90.70;;;;;;5073518;28;20201;-64
2022/11/28 10:37:23;;;;;;;0.40;0.40;;;19.00;90.70;;;;;;5074225;28;20548;-64
2022/11/28 10:40:20;;;;;;;0.40;0.40;;;19.10;90.60;;;;;;5072137;28;20669;-65
2022/11/28 10:43:17;;;;;;;0.40;0.40;;;19.20;90.50;;;;;;5052970;28;20251;-64
2022/11/28 10:46:23;;;;;;;0.60;0.60;;;19.40;90.40;;;;;;5052860;28;20201;-66
2022/11/28 10:49:30;;;;;;;0.40;0.40;;;19.50;90.30;;;;;;5052924;28;20217;-64
2022/11/28 10:52:24;;;;;;;0.40;0.40;;;19.60;90.20;;;;;;5053444;28;20316;-65
2022/11/28 10:55:26;;;;;;;0.40;0.40;;;19.70;90.10;;;;;;5067795;28;20323;-65
2022/11/28 10:58:21;;;;;;;0.40;0.40;;;19.80;90.00;;;;;;5061797;28;20270;-65
2022/11/28 11:01:10;;;;;;;0.40;0.40;;;20.00;90.20;;;;;;5070946;28;20272;-65
2022/11/28 11:03:58;;;;;;;0.70;0.70;;;20.10;89.60;;;;;;5070652;28;20638;-64
2022/11/28 11:06:58;;;;;;;0.40;0.40;;;20.10;89.40;;;;;;5072097;28;20281;-64
2022/11/28 11:10:15;;;;;;;1.48;1.38;;;20.10;89.10;;;;;;5071336;28;20276;-65
2022/11/28 11:13:13;;;;;;;0.40;0.40;;;20.00;89.00;;;;;;5070243;28;20323;-65
2022/11/28 11:16:05;;;;;;;0.40;0.40;;;20.00;88.80;;;;;;5072701;28;20280;-65
2022/11/28 11:18:54;;;;;;;0.40;0.40;;;20.00;88.90;;;;;;5073888;28;20205;-65
2022/11/28 11:22:03;;;;;;;0.50;0.50;;;19.90;88.70;;;;;;5069450;28;20352;-65
2022/11/28 11:25:14;;;;;;;1.02;1.02;;;19.90;88.80;;;;;;5068068;28;20232;-65
2022/11/28 11:28:04;;;;;;;0.50;0.50;;;19.80;88.80;;;;;;5053571;28;20255;-66
2022/11/28 11:30:59;;;;;;;0.68;0.68;;;19.70;89.00;;;;;;5052902;28;20259;-67
2022/11/28 11:33:50;;;;;;;0.75;0.75;;;19.60;89.20;;;;;;5052903;28;20225;-65
2022/11/28 11:36:38;;;;;;;0.60;0.60;;;19.50;89.40;;;;;;5051611;28;20331;-65
2022/11/28 11:39:28;;;;;;;0.40;0.40;;;19.40;89.40;;;;;;5067628;28;20323;-66
2022/11/28 11:42:21;;;;;;;0.40;0.40;;;19.20;89.50;;;;;;5073194;28;20217;-66
2022/11/28 11:45:26;;;;;;;0.50;0.50;;;19.10;89.60;;;;;;5070615;28;20246;-66
2022/11/28 11:48:14;;;;;;;0.40;0.40;;;19.00;89.90;;;;;;5071763;28;20271;-66
2022/11/28 11:51:02;;;;;;;0.40;0.40;;;18.90;90.00;;;;;;5074291;28;20223;-66
2022/11/28 11:54:01;;;;;;;0.77;0.77;;;18.80;90.10;;;;;;5074343;28;20261;-65
2022/11/28 11:56:51;;;;;;;0.50;0.50;;;18.70;90.00;;;;;;5072475;28;21309;-65
2022/11/28 12:00:05;;;;;;;0.40;0.40;;;18.60;90.10;;;;;;5071969;28;20200;-65
2022/11/28 12:02:57;;;;;;;0.88;0.88;;;18.50;90.30;;;;;;5071315;28;20223;-65
2022/11/28 12:05:50;;;;;;;0.40;0.40;;;18.40;90.50;;;;;;5071301;28;20209;-65
2022/11/28 12:09:11;;;;;;;0.40;0.40;;;18.40;90.60;;;;;;5064210;28;20197;-65
2022/11/28 12:12:09;;;;;;;0.88;0.88;;;18.60;90.50;;;;;;5059960;28;20685;-65
2022/11/28 12:14:57;;;;;;;0.65;0.65;;;18.50;90.60;;;;;;5072122;28;20681;-65
2022/11/28 12:17:58;;;;;;;1.00;1.00;;;18.70;90.60;;;;;;5060336;28;20681;-65
2022/11/28 12:20:58;;;;;;;0.40;0.40;;;18.90;90.50;;;;;;5070889;28;20197;-65
2022/11/28 12:23:58;;;;;;;0.50;0.50;;;19.10;90.40;;;;;;5066191;28;20707;-65
2022/11/28 12:26:50;;;;;;;1.38;1.30;;;19.30;90.20;;;;;;5070331;28;20204;-65
2022/11/28 12:29:53;;;;;;;0.50;0.50;;;19.40;90.00;;;;;;5068328;28;20196;-66
2022/11/28 12:32:48;;;;;;;0.70;0.70;;;19.50;89.80;;;;;;5070732;28;20297;-66
2022/11/28 12:35:40;;;;;;;0.40;0.40;;;19.60;89.40;;;;;;5071134;28;20231;-65
2022/11/28 12:38:39;;;;;;;0.40;0.40;;;19.70;89.20;;;;;;5071004;28;20229;-65
2022/11/28 12:41:56;;;;;;;0.40;0.40;;;19.80;89.00;;;;;;5055964;28;20275;-66
2022/11/28 12:45:16;;;;;;;0.63;0.63;;;20.00;88.80;;;;;;5065064;28;20326;-65
2022/11/28 12:48:19;;;;;;;0.40;0.40;;;20.10;88.40;;;;;;5070797;28;20228;-65
2022/11/28 12:51:19;;;;;;;0.40;0.40;;;20.10;88.10;;;;;;5070640;28;20223;-66
2022/11/28 12:54:30;;;;;;;0.40;0.40;;;20.20;88.00;;;;;;5070793;28;20213;-66
2022/11/28 12:57:26;;;;;;;0.40;0.40;;;20.20;87.80;;;;;;5071028;28;20200;-66
2022/11/28 13:00:20;;;;;;;0.40;0.40;;;20.30;87.70;;;;;;5071928;28;20331;-65
2022/11/28 13:03:18;;;;;;;0.40;0.40;;;20.30;87.60;;;;;;5071542;28;20212;-66
2022/11/28 13:06:16;;;;;;;0.40;0.40;;;20.30;87.40;;;;;;5060352;28;20637;-66
2022/11/28 13:09:24;;;;;;;0.40;0.40;;;21.20;88.10;;;;;;5071843;28;20687;-66
2022/11/28 13:12:21;;;;;;;0.40;0.40;;;20.40;87.20;;;;;;5070800;28;20220;-66
2022/11/28 13:15:14;;;;;;;0.82;0.82;;;20.40;87.70;;;;;;5068730;28;20246;-66
2022/11/28 13:18:15;;;;;;;0.40;0.40;;;20.40;86.90;;;;;;5070810;28;20205;-66
2022/11/28 13:21:15;;;;;;;0.50;0.50;;;20.40;86.80;;;;;;5074269;28;20271;-65
2022/11/28 13:24:09;;;;;;;0.57;0.57;;;20.40;86.90;;;;;;5074513;28;20223;-66
2022/11/28 13:27:05;;;;;;;0.40;0.40;;;20.30;86.80;;;;;;5074249;28;20326;-66
2022/11/28 13:30:02;;;;;;;0.70;0.70;;;20.30;87.00;;;;;;5072226;28;20215;-66
2022/11/28 13:32:58;;;;;;;3.83;2.28;;;20.30;87.40;;;;;;5074859;28;20777;-67
2022/11/28 13:35:48;;;;;;;0.60;0.60;;;20.20;87.60;;;;;;5060761;28;20196;-66
2022/11/28 13:38:48;;;;;;;0.40;0.40;;;20.20;87.80;;;;;;5074328;28;20272;-67
2022/11/28 13:42:08;;;;;;;0.85;0.85;;;20.20;87.30;;;;;;5054395;28;20565;-67
2022/11/28 13:45:22;;;;;;;4.97;3.30;;;20.20;87.80;;;;;;5071928;28;20569;-67
2022/11/28 13:48:58;;;;;;;0.40;0.40;;;20.30;88.30;;;;;;5074465;28;20211;-67
2022/11/28 13:52:41;;;;;;;0.40;0.40;;;20.50;86.80;;;;;;5062677;28;20216;-67
2022/11/28 13:55:43;;;;;;;0.40;0.40;;;20.50;87.30;;;;;;5060594;28;20212;-68
2022/11/28 13:58:33;;;;;;;1.35;1.35;;;20.60;86.70;;;;;;5072333;28;20585;-67
2022/11/28 14:01:23;;;;;;;0.40;0.40;;;20.70;86.60;;;;;;5072168;28;20210;-67
2022/11/28 14:04:14;;;;;;;0.40;0.40;;;20.70;86.50;;;;;;5074944;28;20896;-67
2022/11/28 14:07:05;;;;;;;10.65;7.10;;;20.70;86.50;;;;;;5073578;28;20927;-67
2022/11/28 14:10:12;;;;;;;0.40;0.40;;;20.70;86.40;;;;;;5073170;28;20625;-67
2022/11/28 14:13:21;;;;;;;0.40;0.40;;;20.60;86.30;;;;;;5073648;28;20219;-69
2022/11/28 14:16:22;;;;;;;2.80;2.70;;;20.60;86.40;;;;;;5073347;28;20697;-67
2022/11/28 14:19:22;;;;;;;0.40;0.40;;;20.50;86.00;;;;;;5073549;28;20200;-69
2022/11/28 14:22:25;;;;;;;0.60;0.60;;;20.50;86.40;;;;;;5073314;28;20217;-68
2022/11/28 14:25:20;;;;;;;1.52;0.80;;;20.40;86.60;;;;;;5073262;28;20622;-68
2022/11/28 14:28:19;;;;;;;0.40;0.40;;;21.90;88.00;;;;;;5073689;28;20209;-66
2022/11/28 14:31:24;;;;;;;0.40;0.40;;;20.50;86.60;;;;;;5071610;28;20247;-67
2022/11/28 14:34:36;;;;;;;0.40;0.40;;;20.60;86.60;;;;;;5072966;28;20204;-68
2022/11/28 14:37:49;;;;;;;0.40;0.40;;;20.60;86.40;;;;;;5073292;28;20219;-68
2022/11/28 14:41:10;;;;;;;0.40;0.40;;;20.70;86.20;;;;;;5074048;28;20681;-67
2022/11/28 14:44:31;;;;;;;0.40;0.40;;;20.70;85.80;;;;;;5074205;28;20225;-67
2022/11/28 14:47:29;;;;;;;0.50;0.50;;;20.80;85.90;;;;;;5074680;28;20617;-68
2022/11/28 14:50:45;;;;;;;0.50;0.50;;;20.80;86.00;;;;;;5057792;28;20244;-68
2022/11/28 14:53:51;;;;;;;1.52;1.42;;;20.70;85.90;;;;;;5072490;28;20259;-67
2022/11/28 14:56:41;;;;;;;0.98;0.98;;;20.80;85.90;;;;;;5072082;28;20809;-67
2022/11/28 14:59:33;;;;;;;0.40;0.40;;;20.70;85.90;;;;;;5059946;28;20295;-67
2022/11/28 15:02:51;;;;;;;0.60;0.60;;;20.70;85.90;;;;;;5054150;28;20299;-66
2022/11/28 15:05:50;;;;;;;0.40;0.40;;;20.70;85.60;;;;;;5073855;28;20192;-67